createdAt,value
2022-11-03T00:01:46.252Z,0.80
2022-11-03T00:04:16.096Z,1.10
2022-11-03T00:06:46.540Z,1.10
2022-11-03T00:09:18.056Z,0.98
2022-11-03T00:14:15.970Z,0.63
2022-11-03T00:16:46.142Z,1.25
2022-11-03T00:19:16.325Z,0.93
2022-11-03T00:21:45.004Z,1.30
2022-11-03T00:24:14.065Z,1.17
2022-11-03T00:26:42.275Z,1.00
2022-11-03T00:29:12.420Z,0.90
2022-11-03T00:31:42.194Z,0.93
2022-11-03T00:34:12.099Z,1.13
2022-11-03T00:36:42.344Z,1.58
2022-11-03T00:39:11.458Z,1.80
2022-11-03T00:41:40.295Z,1.10
2022-11-03T00:44:10.724Z,0.80
2022-11-03T00:46:39.214Z,1.05
2022-11-03T00:49:07.387Z,1.10
2022-11-03T00:51:37.294Z,1.30
2022-11-03T00:54:07.549Z,0.60
2022-11-03T00:56:37.186Z,0.90
2022-11-03T00:59:06.552Z,1.10
2022-11-03T01:01:42.138Z,0.80
2022-11-03T01:04:31.350Z,0.85
2022-11-03T01:07:02.497Z,1.50
2022-11-03T01:09:32.529Z,3.55
2022-11-03T01:12:01.986Z,0.98
2022-11-03T01:14:33.173Z,0.88
2022-11-03T01:17:01.260Z,1.05
2022-11-03T01:19:29.430Z,1.00
2022-11-03T01:21:57.564Z,0.65
2022-11-03T01:24:27.211Z,0.90
2022-11-03T01:26:55.423Z,1.35
2022-11-03T01:29:23.614Z,1.67
2022-11-03T01:31:51.675Z,1.83
2022-11-03T01:34:21.595Z,0.88
2022-11-03T01:36:50.109Z,1.10
2022-11-03T01:39:19.543Z,0.80
2022-11-03T01:41:51.549Z,0.75
2022-11-03T01:44:29.668Z,1.17
2022-11-03T01:47:04.564Z,1.23
2022-11-03T01:49:38.153Z,1.08
2022-11-03T01:52:09.940Z,1.10
2022-11-03T01:54:40.461Z,1.10
2022-11-03T01:57:13.647Z,1.10
2022-11-03T01:59:42.487Z,1.70
2022-11-03T02:02:10.945Z,1.90
2022-11-03T02:04:39.782Z,1.25
2022-11-03T02:07:16.918Z,1.90
2022-11-03T02:09:45.083Z,2.00
2022-11-03T02:12:17.156Z,1.73
2022-11-03T02:14:51.738Z,2.10
2022-11-03T02:17:23.265Z,1.30
2022-11-03T02:22:36.175Z,1.45
2022-11-03T02:25:16.589Z,1.30
2022-11-03T02:27:47.016Z,1.52
2022-11-03T02:30:15.201Z,1.58
2022-11-03T02:32:56.010Z,1.33
2022-11-03T02:35:30.867Z,1.07
2022-11-03T02:38:02.352Z,1.88
2022-11-03T02:43:04.978Z,3.72
2022-11-03T02:45:33.365Z,1.13
2022-11-03T02:48:04.231Z,1.42
2022-11-03T02:50:34.790Z,1.50
2022-11-03T02:53:03.154Z,1.80
2022-11-03T02:55:38.277Z,1.60
2022-11-03T02:58:16.491Z,1.75
2022-11-03T03:00:51.240Z,2.72
2022-11-03T03:03:23.548Z,1.75
2022-11-03T03:05:57.814Z,1.48
2022-11-03T03:08:28.559Z,1.30
2022-11-03T03:10:58.954Z,1.63
2022-11-03T03:13:28.734Z,2.03
2022-11-03T03:16:07.428Z,1.67
2022-11-03T03:18:49.499Z,2.20
2022-11-03T03:21:22.513Z,1.65
2022-11-03T03:23:56.942Z,1.33
2022-11-03T03:26:29.827Z,1.65
2022-11-03T03:29:05.152Z,1.15
2022-11-03T03:31:39.680Z,1.75
2022-11-03T03:34:31.389Z,2.05
2022-11-03T03:37:01.117Z,2.30
2022-11-03T03:39:33.679Z,1.08
2022-11-03T03:42:04.683Z,3.05
2022-11-03T03:44:35.510Z,1.23
2022-11-03T03:47:08.494Z,1.30
2022-11-03T03:49:36.684Z,1.92
2022-11-03T03:52:05.460Z,1.70
2022-11-03T03:54:33.735Z,2.08
2022-11-03T03:57:04.611Z,1.55
2022-11-03T03:59:34.307Z,2.13
2022-11-03T04:02:03.195Z,1.90
2022-11-03T04:04:31.447Z,2.40
2022-11-03T04:07:13.350Z,1.63
2022-11-03T04:09:41.410Z,1.20
2022-11-03T04:12:27.255Z,2.60
2022-11-03T04:15:14.144Z,1.40
2022-11-03T04:18:02.775Z,1.27
2022-11-03T04:20:49.294Z,1.33
2022-11-03T04:23:17.561Z,1.10
2022-11-03T04:25:49.777Z,1.92
2022-11-03T04:28:18.264Z,1.90
2022-11-03T04:30:48.114Z,2.42
2022-11-03T04:33:18.035Z,2.33
2022-11-03T04:35:47.345Z,2.40
2022-11-03T04:38:24.317Z,2.10
2022-11-03T04:40:56.454Z,1.65
2022-11-03T04:43:31.239Z,2.05
2022-11-03T04:46:01.047Z,1.95
2022-11-03T04:48:30.331Z,2.88
2022-11-03T04:51:01.072Z,2.90
2022-11-03T04:53:31.947Z,1.87
2022-11-03T04:56:06.983Z,2.15
2022-11-03T04:58:37.183Z,1.90
2022-11-03T05:01:13.902Z,3.45
2022-11-03T05:03:43.459Z,2.22
2022-11-03T05:06:15.404Z,1.83
2022-11-03T05:08:45.348Z,1.70
2022-11-03T05:11:22.253Z,1.67
2022-11-03T05:13:52.345Z,1.77
2022-11-03T05:16:22.179Z,2.00
2022-11-03T05:18:51.398Z,1.88
2022-11-03T05:21:23.251Z,2.78
2022-11-03T05:23:54.247Z,1.65
2022-11-03T05:26:26.059Z,1.75
2022-11-03T05:28:59.979Z,2.90
2022-11-03T05:31:32.384Z,2.28
2022-11-03T05:34:03.246Z,1.50
2022-11-03T05:36:33.099Z,1.20
2022-11-03T05:39:18.464Z,1.13
2022-11-03T05:41:46.580Z,1.58
2022-11-03T05:44:30.164Z,1.80
2022-11-03T05:47:03.237Z,1.35
2022-11-03T05:49:34.129Z,1.70
2022-11-03T05:52:02.249Z,1.63
2022-11-03T05:54:35.280Z,3.28
2022-11-03T05:57:03.378Z,1.83
2022-11-03T05:59:31.913Z,1.85
2022-11-03T06:02:02.587Z,1.63
2022-11-03T06:04:36.913Z,1.15
2022-11-03T06:07:14.276Z,1.65
2022-11-03T06:09:42.368Z,1.70
2022-11-03T06:12:16.817Z,1.63
2022-11-03T06:14:45.398Z,1.27
2022-11-03T06:17:23.554Z,1.45
2022-11-03T06:19:55.145Z,1.88
2022-11-03T06:22:25.838Z,1.60
2022-11-03T06:24:56.501Z,1.80
2022-11-03T06:27:27.684Z,1.40
2022-11-03T06:30:00.410Z,1.77
2022-11-03T06:32:30.605Z,2.42
2022-11-03T06:35:01.081Z,1.40
2022-11-03T06:37:33.868Z,1.60
2022-11-03T06:40:05.793Z,2.08
2022-11-03T06:42:34.456Z,2.58
2022-11-03T06:45:13.534Z,1.65
2022-11-03T06:47:43.175Z,1.50
2022-11-03T06:50:23.486Z,1.25
2022-11-03T06:52:52.679Z,1.35
2022-11-03T06:55:26.556Z,0.85
2022-11-03T06:57:59.025Z,2.17
2022-11-03T07:00:38.581Z,1.58
2022-11-03T07:03:15.970Z,1.48
2022-11-03T07:05:46.355Z,1.25
2022-11-03T07:08:28.181Z,1.42
2022-11-03T07:11:02.810Z,1.38
2022-11-03T07:13:33.877Z,3.20
2022-11-03T07:16:02.448Z,1.48
2022-11-03T07:18:36.486Z,1.48
2022-11-03T07:21:08.646Z,1.75
2022-11-03T07:23:36.852Z,1.10
2022-11-03T07:26:06.186Z,1.15
2022-11-03T07:28:37.919Z,1.35
2022-11-03T07:31:17.246Z,2.05
2022-11-03T07:33:47.460Z,1.35
2022-11-03T07:36:20.029Z,1.75
2022-11-03T07:38:52.435Z,1.50
2022-11-03T07:41:23.963Z,1.02
2022-11-03T07:43:57.310Z,1.27
2022-11-03T07:48:57.783Z,1.48
2022-11-03T07:51:29.973Z,1.08
2022-11-03T07:54:03.546Z,1.10
2022-11-03T07:56:36.866Z,1.25
2022-11-03T07:59:17.634Z,1.23
2022-11-03T08:01:49.536Z,1.13
2022-11-03T08:04:23.042Z,1.48
2022-11-03T08:06:51.517Z,0.82
2022-11-03T08:09:20.031Z,1.40
2022-11-03T08:11:48.805Z,1.60
2022-11-03T08:14:17.221Z,1.08
2022-11-03T08:16:45.577Z,1.35
2022-11-03T08:19:13.877Z,1.77
2022-11-03T08:21:43.503Z,1.42
2022-11-03T08:24:11.696Z,1.80
2022-11-03T08:26:39.806Z,1.92
2022-11-03T08:29:07.984Z,1.25
2022-11-03T08:31:36.139Z,1.17
2022-11-03T08:34:04.308Z,1.08
2022-11-03T08:36:32.612Z,1.30
2022-11-03T08:39:02.262Z,1.70
2022-11-03T08:41:30.448Z,1.13
2022-11-03T08:43:58.665Z,1.25
2022-11-03T08:46:26.860Z,1.35
2022-11-03T08:48:55.063Z,1.92
2022-11-03T08:51:23.316Z,1.20
2022-11-03T08:53:54.187Z,1.10
2022-11-03T08:56:23.930Z,1.50
2022-11-03T08:58:52.400Z,1.45
2022-11-03T09:01:20.586Z,1.52
2022-11-03T09:03:48.715Z,0.95
2022-11-03T09:06:17.151Z,1.40
2022-11-03T09:11:36.073Z,2.33
2022-11-03T09:14:04.652Z,1.50
2022-11-03T09:16:32.900Z,1.27
2022-11-03T09:19:01.034Z,1.80
2022-11-03T09:21:29.235Z,1.60
2022-11-03T09:23:59.521Z,1.70
2022-11-03T09:26:28.311Z,1.45
2022-11-03T09:28:57.923Z,1.90
2022-11-03T09:31:28.587Z,1.20
2022-11-03T09:33:56.976Z,1.52
2022-11-03T09:36:25.175Z,1.67
2022-11-03T09:38:53.311Z,1.40
2022-11-03T09:41:27.768Z,1.52
2022-11-03T09:44:00.512Z,1.30
2022-11-03T09:46:31.097Z,1.55
2022-11-03T09:49:00.420Z,1.55
2022-11-03T09:51:29.484Z,1.33
2022-11-03T09:54:00.509Z,1.60
2022-11-03T09:56:28.982Z,1.80
2022-11-03T09:58:58.679Z,1.02
2022-11-03T10:01:26.882Z,1.30
2022-11-03T10:04:03.079Z,1.70
2022-11-03T10:06:31.274Z,2.72
2022-11-03T10:08:59.407Z,1.73
2022-11-03T10:11:27.694Z,1.60
2022-11-03T10:13:59.131Z,1.70
2022-11-03T10:16:27.932Z,1.90
2022-11-03T10:18:56.402Z,1.38
2022-11-03T10:21:28.998Z,1.60
2022-11-03T10:23:57.144Z,1.50
2022-11-03T10:26:25.372Z,1.52
2022-11-03T10:29:01.873Z,1.85
2022-11-03T10:31:35.606Z,1.70
2022-11-03T10:34:04.313Z,3.58
2022-11-03T10:36:34.404Z,1.40
2022-11-03T10:39:25.196Z,2.00
2022-11-03T10:41:57.605Z,2.35
2022-11-03T10:44:28.241Z,1.50
2022-11-03T10:47:00.917Z,2.17
2022-11-03T10:49:30.437Z,1.52
2022-11-03T10:52:14.511Z,2.95
2022-11-03T10:54:42.748Z,1.42
2022-11-03T10:57:10.941Z,1.77
2022-11-03T10:59:41.011Z,1.55
2022-11-03T11:02:18.625Z,1.30
2022-11-03T11:04:49.330Z,1.83
2022-11-03T11:07:24.983Z,2.22
2022-11-03T11:09:54.286Z,1.27
2022-11-03T11:12:25.019Z,1.77
2022-11-03T11:14:57.741Z,2.37
2022-11-03T11:17:56.001Z,3.15
2022-11-03T11:20:33.836Z,1.70
2022-11-03T11:23:52.843Z,2.55
2022-11-03T11:26:42.150Z,1.60
2022-11-03T11:29:44.194Z,1.83
2022-11-03T11:32:48.188Z,1.45
2022-11-03T11:35:38.729Z,1.60
2022-11-03T11:38:56.477Z,1.80
2022-11-03T11:41:58.003Z,1.10
2022-11-03T11:44:49.980Z,2.00
2022-11-03T11:47:27.000Z,1.85
2022-11-03T11:50:11.710Z,2.33
2022-11-03T11:52:44.291Z,1.92
2022-11-03T11:55:20.231Z,1.67
2022-11-03T11:57:49.159Z,1.85
2022-11-03T12:00:22.542Z,1.83
2022-11-03T12:02:51.498Z,1.80
2022-11-03T12:05:21.680Z,1.45
2022-11-03T12:07:51.411Z,1.50
2022-11-03T12:10:22.852Z,2.40
2022-11-03T12:12:51.650Z,3.35
2022-11-03T12:15:52.055Z,2.30
2022-11-03T12:18:39.137Z,1.30
2022-11-03T12:21:11.418Z,1.92
2022-11-03T12:23:43.549Z,1.70
2022-11-03T12:26:19.604Z,3.58
2022-11-03T12:28:47.830Z,2.33
2022-11-03T12:31:15.968Z,2.78
2022-11-03T12:33:44.161Z,2.17
2022-11-03T12:36:12.448Z,1.65
2022-11-03T12:38:42.561Z,1.45
2022-11-03T12:41:24.254Z,2.05
2022-11-03T12:43:54.381Z,1.50
2022-11-03T12:46:23.703Z,1.80
2022-11-03T12:48:52.571Z,3.00
2022-11-03T12:51:22.721Z,2.20
2022-11-03T12:53:52.754Z,1.13
2022-11-03T12:56:20.973Z,1.30
2022-11-03T12:58:49.215Z,1.27
2022-11-03T13:01:17.567Z,1.98
2022-11-03T13:03:45.913Z,1.63
2022-11-03T13:06:14.970Z,1.30
2022-11-03T13:08:44.706Z,1.48
2022-11-03T13:11:33.883Z,1.40
2022-11-03T13:14:01.991Z,1.67
2022-11-03T13:16:30.131Z,1.30
2022-11-03T13:18:58.325Z,1.20
2022-11-03T13:21:26.405Z,3.63
2022-11-03T13:23:56.353Z,1.95
2022-11-03T13:26:26.009Z,1.70
2022-11-03T13:28:54.252Z,1.50
2022-11-03T13:31:22.399Z,1.92
2022-11-03T13:33:51.060Z,4.72
2022-11-03T13:36:19.396Z,2.28
2022-11-03T13:38:47.622Z,1.92
2022-11-03T13:41:15.866Z,1.38
2022-11-03T13:43:45.467Z,1.48
2022-11-03T13:46:13.484Z,1.70
2022-11-03T13:51:29.622Z,2.67
2022-11-03T13:59:35.842Z,1.45
2022-11-03T14:04:52.658Z,1.98
2022-11-03T14:07:20.836Z,1.35
2022-11-03T14:09:48.953Z,1.33
2022-11-03T14:12:32.151Z,2.25
2022-11-03T14:15:04.208Z,1.67
2022-11-03T14:17:32.618Z,2.15
2022-11-03T14:20:04.478Z,4.85
2022-11-03T14:22:33.664Z,1.58
2022-11-03T14:25:02.336Z,3.10
2022-11-03T14:27:30.511Z,1.85
2022-11-03T14:29:58.817Z,1.10
2022-11-03T14:32:28.365Z,2.78
2022-11-03T14:34:56.674Z,1.77
2022-11-03T14:37:25.499Z,2.30
2022-11-03T14:39:53.879Z,1.80
2022-11-03T14:42:21.461Z,2.28
2022-11-03T14:44:49.774Z,4.10
2022-11-03T14:47:21.385Z,1.90
2022-11-03T14:49:51.271Z,1.98
2022-11-03T14:52:19.476Z,1.10
2022-11-03T14:54:47.627Z,1.60
2022-11-03T14:57:15.757Z,1.80
2022-11-03T14:59:46.762Z,2.38
2022-11-03T15:02:17.451Z,2.25
2022-11-03T15:04:45.736Z,2.35
2022-11-03T15:07:15.353Z,1.80
2022-11-03T15:09:43.564Z,1.55
2022-11-03T15:12:11.784Z,1.65
2022-11-03T15:14:40.094Z,1.45
2022-11-03T15:17:08.278Z,1.40
2022-11-03T15:19:36.472Z,2.30
2022-11-03T15:22:04.788Z,1.83
2022-11-03T15:27:22.495Z,1.80
2022-11-03T15:29:50.655Z,1.40
2022-11-03T15:32:18.913Z,1.60
2022-11-03T15:34:47.045Z,1.40
2022-11-03T15:37:15.776Z,1.20
2022-11-03T15:39:45.419Z,0.50
2022-11-03T15:42:13.639Z,2.63
2022-11-03T15:44:41.798Z,1.30
2022-11-03T15:47:09.914Z,1.20
2022-11-03T15:49:38.002Z,1.20
2022-11-03T15:52:06.695Z,1.63
2022-11-03T15:54:39.809Z,1.05
2022-11-03T15:57:11.768Z,1.40
2022-11-03T15:59:40.237Z,0.80
2022-11-03T16:02:27.764Z,1.00
2022-11-03T16:04:57.280Z,1.00
2022-11-03T16:07:26.220Z,0.70
2022-11-03T16:09:54.340Z,1.17
2022-11-03T16:12:24.571Z,0.98
2022-11-03T16:14:53.004Z,0.80
2022-11-03T16:17:22.920Z,1.00
2022-11-03T16:19:51.850Z,0.70
2022-11-03T16:22:20.001Z,0.95
2022-11-03T16:24:48.837Z,0.93
2022-11-03T16:27:16.937Z,1.10
2022-11-03T16:29:46.516Z,1.98
2022-11-03T16:32:14.769Z,1.00
2022-11-03T16:34:42.909Z,1.70
2022-11-03T16:37:10.995Z,2.15
2022-11-03T16:39:40.236Z,1.17
2022-11-03T16:42:08.391Z,1.13
2022-11-03T16:44:36.676Z,1.60
2022-11-03T16:47:06.739Z,3.50
2022-11-03T16:49:35.387Z,3.38
2022-11-03T16:52:03.500Z,3.83
2022-11-03T16:54:31.655Z,1.40
2022-11-03T16:56:59.927Z,3.38
2022-11-03T16:59:28.146Z,1.60
2022-11-03T17:01:57.067Z,1.90
2022-11-03T17:04:26.707Z,1.70
2022-11-03T17:06:54.933Z,1.73
2022-11-03T17:09:23.024Z,7.10
2022-11-03T17:11:51.139Z,6.35
2022-11-03T17:14:19.388Z,3.47
2022-11-03T17:16:48.736Z,17.98
2022-11-03T17:19:17.026Z,6.60
2022-11-03T17:21:46.505Z,3.65
2022-11-03T17:24:14.752Z,5.80
2022-11-03T17:26:52.902Z,3.10
2022-11-03T17:29:24.065Z,1.38
2022-11-03T17:31:52.394Z,2.42
2022-11-03T17:34:23.950Z,2.47
2022-11-03T17:39:29.396Z,0.73
2022-11-03T17:42:12.447Z,1.00
2022-11-03T17:44:40.522Z,1.60
2022-11-03T17:47:09.044Z,1.98
2022-11-03T17:49:37.225Z,2.58
2022-11-03T17:52:07.692Z,2.25
2022-11-03T17:54:35.996Z,2.50
2022-11-03T17:57:05.321Z,3.20
2022-11-03T17:59:34.665Z,4.25
2022-11-03T18:02:03.959Z,4.32
2022-11-03T18:04:32.349Z,2.40
2022-11-03T18:07:01.479Z,3.20
2022-11-03T18:09:31.019Z,2.92
2022-11-03T18:12:16.489Z,3.45
2022-11-03T18:14:44.717Z,4.20
2022-11-03T18:17:13.029Z,4.03
2022-11-03T18:19:41.687Z,4.60
2022-11-03T18:22:10.679Z,3.92
2022-11-03T18:24:40.274Z,3.20
2022-11-03T18:27:12.036Z,3.30
2022-11-03T18:29:40.235Z,3.38
2022-11-03T18:32:16.037Z,3.15
2022-11-03T18:34:44.298Z,3.10
2022-11-03T18:37:13.066Z,2.15
2022-11-03T18:39:42.731Z,2.53
2022-11-03T18:42:15.405Z,1.90
2022-11-03T18:44:44.577Z,1.80
2022-11-03T18:47:12.811Z,1.33
2022-11-03T18:49:41.313Z,1.58
2022-11-03T18:52:15.320Z,1.75
2022-11-03T18:54:47.128Z,1.40
2022-11-03T18:57:15.460Z,1.48
2022-11-03T18:59:45.980Z,1.88
2022-11-03T19:02:18.042Z,2.42
2022-11-03T19:04:46.710Z,1.63
2022-11-03T19:07:19.362Z,2.65
2022-11-03T19:09:49.033Z,1.60
2022-11-03T19:12:17.291Z,2.35
2022-11-03T19:14:47.857Z,2.17
2022-11-03T19:17:23.405Z,2.08
2022-11-03T19:19:52.687Z,1.90
2022-11-03T19:22:22.294Z,2.50
2022-11-03T19:24:51.873Z,2.10
2022-11-03T19:27:23.990Z,2.42
2022-11-03T19:29:52.587Z,2.72
2022-11-03T19:32:25.968Z,2.25
2022-11-03T19:35:00.166Z,1.98
2022-11-03T19:37:35.107Z,6.38
2022-11-03T19:40:09.278Z,4.55
2022-11-03T19:42:40.424Z,3.13
2022-11-03T19:45:12.359Z,3.65
2022-11-03T19:50:35.549Z,5.32
2022-11-03T19:53:07.071Z,5.03
2022-11-03T19:55:40.512Z,4.50
2022-11-03T19:58:15.446Z,3.90
2022-11-03T20:00:43.918Z,4.97
2022-11-03T20:03:13.128Z,4.40
2022-11-03T20:05:46.393Z,4.40
2022-11-03T20:08:19.963Z,4.10
2022-11-03T20:10:49.884Z,4.28
2022-11-03T20:13:20.824Z,4.70
2022-11-03T20:15:49.371Z,5.88
2022-11-03T20:18:18.121Z,4.15
2022-11-03T20:20:49.392Z,5.40
2022-11-03T20:23:22.283Z,5.07
2022-11-03T20:25:52.410Z,5.03
2022-11-03T20:28:22.958Z,4.95
2022-11-03T20:30:51.527Z,3.85
2022-11-03T20:33:22.129Z,3.50
2022-11-03T20:35:51.540Z,4.07
2022-11-03T20:38:21.659Z,3.42
2022-11-03T20:40:58.696Z,3.28
2022-11-03T20:43:30.445Z,4.93
2022-11-03T20:45:59.414Z,3.30
2022-11-03T20:48:27.684Z,3.40
2022-11-03T20:50:56.142Z,3.38
2022-11-03T20:53:26.779Z,3.33
2022-11-03T20:55:56.335Z,3.47
2022-11-03T20:58:24.955Z,3.30
2022-11-03T21:00:53.289Z,3.45
2022-11-03T21:03:45.668Z,5.07
2022-11-03T21:06:19.791Z,4.07
2022-11-03T21:08:49.006Z,3.53
2022-11-03T21:11:28.488Z,4.53
2022-11-03T21:13:58.804Z,4.10
2022-11-03T21:16:46.060Z,4.35
2022-11-03T21:19:34.867Z,3.47
2022-11-03T21:22:04.002Z,5.53
2022-11-03T21:24:32.566Z,3.85
2022-11-03T21:27:03.355Z,4.15
2022-11-03T21:29:57.812Z,3.38
2022-11-03T21:32:21.941Z,5.25
2022-11-03T21:34:50.373Z,6.95
2022-11-03T21:37:19.061Z,16.92
2022-11-03T21:39:47.648Z,14.65
2022-11-03T21:42:35.327Z,6.90
2022-11-03T21:45:03.675Z,4.68
2022-11-03T21:47:32.075Z,4.15
2022-11-03T21:52:33.032Z,3.40
2022-11-03T21:55:02.999Z,3.88
2022-11-03T21:57:33.203Z,3.58
2022-11-03T22:00:01.475Z,3.97
2022-11-03T22:02:30.570Z,3.80
2022-11-03T22:04:59.293Z,4.28
2022-11-03T22:07:27.557Z,5.35
2022-11-03T22:09:55.850Z,4.97
2022-11-03T22:12:25.067Z,4.50
2022-11-03T22:15:12.245Z,5.30
2022-11-03T22:17:40.811Z,4.97
2022-11-03T22:20:27.600Z,4.78
2022-11-03T22:23:13.490Z,5.50
2022-11-03T22:25:59.332Z,4.10
2022-11-03T22:28:27.718Z,5.00
2022-11-03T22:31:14.496Z,4.35
2022-11-03T22:33:56.542Z,4.32
2022-11-03T22:36:24.735Z,4.68
2022-11-03T22:39:10.297Z,4.88
2022-11-03T22:41:56.128Z,4.45
2022-11-03T22:44:41.675Z,4.93
2022-11-03T22:47:14.486Z,3.85
2022-11-03T22:49:44.274Z,4.10
2022-11-03T22:52:12.569Z,4.55
2022-11-03T22:54:40.824Z,4.53
2022-11-03T22:57:11.450Z,5.10
2022-11-03T22:59:39.832Z,4.57
2022-11-03T23:02:08.746Z,4.68
2022-11-03T23:04:38.451Z,5.35
2022-11-03T23:07:06.676Z,5.45
2022-11-03T23:09:34.821Z,6.38
2022-11-03T23:12:02.876Z,5.00
2022-11-03T23:14:51.903Z,5.32
2022-11-03T23:17:19.987Z,4.40
2022-11-03T23:20:06.927Z,4.72
2022-11-03T23:22:35.167Z,4.20
2022-11-03T23:25:02.353Z,4.70
2022-11-03T23:27:30.479Z,4.45
2022-11-03T23:29:58.677Z,4.50
2022-11-03T23:32:26.887Z,4.82
2022-11-03T23:34:56.560Z,4.68
2022-11-03T23:37:24.710Z,4.70
2022-11-03T23:39:52.807Z,3.85
2022-11-03T23:42:21.124Z,4.03
2022-11-03T23:45:06.732Z,4.60
2022-11-03T23:47:51.929Z,4.35
2022-11-03T23:50:21.627Z,4.72
2022-11-03T23:52:49.783Z,4.25
2022-11-03T23:55:18.137Z,6.07
2022-11-03T23:58:00.122Z,4.53
